sensor_id;sensor_type;location;lat;lon;timestamp;pressure;altitude;pressure_sealevel;temperature
16956;BMP180;8594;52.052;8.354;2022-09-06T00:01:57;100797.00;;;25.60
16956;BMP180;8594;52.052;8.354;2022-09-06T00:04:24;100796.00;;;25.90
16956;BMP180;8594;52.052;8.354;2022-09-06T00:06:51;100791.00;;;25.60
16956;BMP180;8594;52.052;8.354;2022-09-06T00:09:17;100798.00;;;25.80
16956;BMP180;8594;52.052;8.354;2022-09-06T00:11:44;100778.00;;;25.70
16956;BMP180;8594;52.052;8.354;2022-09-06T00:14:12;100782.00;;;25.90
16956;BMP180;8594;52.052;8.354;2022-09-06T00:16:39;100784.00;;;25.90
16956;BMP180;8594;52.052;8.354;2022-09-06T00:19:06;100783.00;;;25.70
16956;BMP180;8594;52.052;8.354;2022-09-06T00:21:33;100782.00;;;25.70
16956;BMP180;8594;52.052;8.354;2022-09-06T00:24:01;100784.00;;;25.70
16956;BMP180;8594;52.052;8.354;2022-09-06T00:26:28;100784.00;;;25.90
16956;BMP180;8594;52.052;8.354;2022-09-06T00:28:56;100776.00;;;26.00
16956;BMP180;8594;52.052;8.354;2022-09-06T00:31:26;100780.00;;;25.90
16956;BMP180;8594;52.052;8.354;2022-09-06T00:33:53;100777.00;;;25.90
16956;BMP180;8594;52.052;8.354;2022-09-06T00:36:21;100783.00;;;26.10
16956;BMP180;8594;52.052;8.354;2022-09-06T00:38:48;100784.00;;;26.10
16956;BMP180;8594;52.052;8.354;2022-09-06T00:41:16;100775.00;;;26.00
16956;BMP180;8594;52.052;8.354;2022-09-06T00:43:43;100775.00;;;26.20
16956;BMP180;8594;52.052;8.354;2022-09-06T00:46:15;100778.00;;;26.10
16956;BMP180;8594;52.052;8.354;2022-09-06T00:48:47;100768.00;;;26.10
16956;BMP180;8594;52.052;8.354;2022-09-06T00:51:16;100766.00;;;26.10
16956;BMP180;8594;52.052;8.354;2022-09-06T00:53:44;100772.00;;;26.10
16956;BMP180;8594;52.052;8.354;2022-09-06T00:56:11;100754.00;;;26.20
16956;BMP180;8594;52.052;8.354;2022-09-06T00:58:39;100762.00;;;26.20
16956;BMP180;8594;52.052;8.354;2022-09-06T01:01:06;100756.00;;;26.10
16956;BMP180;8594;52.052;8.354;2022-09-06T01:03:33;100762.00;;;26.20
16956;BMP180;8594;52.052;8.354;2022-09-06T01:06:19;100757.00;;;25.90
16956;BMP180;8594;52.052;8.354;2022-09-06T01:09:00;100761.00;;;25.90
16956;BMP180;8594;52.052;8.354;2022-09-06T01:11:52;100761.00;;;26.10
16956;BMP180;8594;52.052;8.354;2022-09-06T01:14:35;100760.00;;;25.60
16956;BMP180;8594;52.052;8.354;2022-09-06T01:17:19;100759.00;;;25.90
16956;BMP180;8594;52.052;8.354;2022-09-06T01:20:18;100756.00;;;26.10
16956;BMP180;8594;52.052;8.354;2022-09-06T01:23:33;100748.00;;;26.00
16956;BMP180;8594;52.052;8.354;2022-09-06T01:26:26;100750.00;;;26.30
16956;BMP180;8594;52.052;8.354;2022-09-06T01:28:57;100743.00;;;26.30
16956;BMP180;8594;52.052;8.354;2022-09-06T01:31:30;100745.00;;;26.20
16956;BMP180;8594;52.052;8.354;2022-09-06T01:34:18;100748.00;;;26.20
16956;BMP180;8594;52.052;8.354;2022-09-06T01:36:52;100746.00;;;26.40
16956;BMP180;8594;52.052;8.354;2022-09-06T01:39:26;100747.00;;;26.30
16956;BMP180;8594;52.052;8.354;2022-09-06T01:41:53;100748.00;;;26.00
16956;BMP180;8594;52.052;8.354;2022-09-06T01:44:27;100745.00;;;26.10
16956;BMP180;8594;52.052;8.354;2022-09-06T01:47:08;100736.00;;;26.10
16956;BMP180;8594;52.052;8.354;2022-09-06T01:49:53;100737.00;;;25.90
16956;BMP180;8594;52.052;8.354;2022-09-06T01:52:34;100738.00;;;26.00
16956;BMP180;8594;52.052;8.354;2022-09-06T01:55:19;100741.00;;;25.80
16956;BMP180;8594;52.052;8.354;2022-09-06T01:58:04;100735.00;;;25.80
16956;BMP180;8594;52.052;8.354;2022-09-06T02:00:46;100732.00;;;26.10
16956;BMP180;8594;52.052;8.354;2022-09-06T02:03:24;100727.00;;;25.90
16956;BMP180;8594;52.052;8.354;2022-09-06T02:05:58;100722.00;;;25.80
16956;BMP180;8594;52.052;8.354;2022-09-06T02:08:34;100719.00;;;25.90
16956;BMP180;8594;52.052;8.354;2022-09-06T02:11:05;100727.00;;;25.60
16956;BMP180;8594;52.052;8.354;2022-09-06T02:13:38;100728.00;;;25.60
16956;BMP180;8594;52.052;8.354;2022-09-06T02:16:09;100717.00;;;25.70
16956;BMP180;8594;52.052;8.354;2022-09-06T02:18:41;100725.00;;;26.00
16956;BMP180;8594;52.052;8.354;2022-09-06T02:21:13;100730.00;;;25.90
16956;BMP180;8594;52.052;8.354;2022-09-06T02:23:43;100725.00;;;25.90
16956;BMP180;8594;52.052;8.354;2022-09-06T02:26:16;100724.00;;;26.00
16956;BMP180;8594;52.052;8.354;2022-09-06T02:28:43;100719.00;;;26.00
16956;BMP180;8594;52.052;8.354;2022-09-06T02:31:19;100716.00;;;25.90
16956;BMP180;8594;52.052;8.354;2022-09-06T02:33:48;100722.00;;;25.90
16956;BMP180;8594;52.052;8.354;2022-09-06T02:36:17;100723.00;;;26.10
16956;BMP180;8594;52.052;8.354;2022-09-06T02:38:45;100718.00;;;26.10
16956;BMP180;8594;52.052;8.354;2022-09-06T02:41:14;100718.00;;;26.00
16956;BMP180;8594;52.052;8.354;2022-09-06T02:43:43;100726.00;;;26.00
16956;BMP180;8594;52.052;8.354;2022-09-06T02:46:11;100721.00;;;26.00
16956;BMP180;8594;52.052;8.354;2022-09-06T02:48:38;100718.00;;;25.70
16956;BMP180;8594;52.052;8.354;2022-09-06T02:51:07;100718.00;;;25.90
16956;BMP180;8594;52.052;8.354;2022-09-06T02:53:35;100718.00;;;25.70
16956;BMP180;8594;52.052;8.354;2022-09-06T02:56:02;100721.00;;;25.50
16956;BMP180;8594;52.052;8.354;2022-09-06T02:58:29;100715.00;;;25.50
16956;BMP180;8594;52.052;8.354;2022-09-06T03:00:56;100711.00;;;25.60
16956;BMP180;8594;52.052;8.354;2022-09-06T03:03:24;100721.00;;;25.60
16956;BMP180;8594;52.052;8.354;2022-09-06T03:05:53;100713.00;;;25.60
16956;BMP180;8594;52.052;8.354;2022-09-06T03:08:22;100715.00;;;25.50
16956;BMP180;8594;52.052;8.354;2022-09-06T03:10:52;100715.00;;;25.50
16956;BMP180;8594;52.052;8.354;2022-09-06T03:13:21;100711.00;;;25.60
16956;BMP180;8594;52.052;8.354;2022-09-06T03:15:49;100716.00;;;25.40
16956;BMP180;8594;52.052;8.354;2022-09-06T03:18:17;100720.00;;;25.20
16956;BMP180;8594;52.052;8.354;2022-09-06T03:20:45;100730.00;;;25.20
16956;BMP180;8594;52.052;8.354;2022-09-06T03:23:14;100742.00;;;25.30
16956;BMP180;8594;52.052;8.354;2022-09-06T03:25:41;100739.00;;;25.50
16956;BMP180;8594;52.052;8.354;2022-09-06T03:28:09;100732.00;;;25.80
16956;BMP180;8594;52.052;8.354;2022-09-06T03:30:36;100723.00;;;25.80
16956;BMP180;8594;52.052;8.354;2022-09-06T03:33:03;100724.00;;;25.90
16956;BMP180;8594;52.052;8.354;2022-09-06T03:35:30;100730.00;;;25.90
16956;BMP180;8594;52.052;8.354;2022-09-06T03:37:58;100732.00;;;25.70
16956;BMP180;8594;52.052;8.354;2022-09-06T03:40:25;100735.00;;;25.50
16956;BMP180;8594;52.052;8.354;2022-09-06T03:42:51;100725.00;;;25.70
16956;BMP180;8594;52.052;8.354;2022-09-06T03:45:18;100727.00;;;25.70
16956;BMP180;8594;52.052;8.354;2022-09-06T03:47:45;100725.00;;;25.60
16956;BMP180;8594;52.052;8.354;2022-09-06T03:50:12;100707.00;;;25.80
16956;BMP180;8594;52.052;8.354;2022-09-06T03:52:39;100706.00;;;25.70
16956;BMP180;8594;52.052;8.354;2022-09-06T03:55:08;100704.00;;;25.30
16956;BMP180;8594;52.052;8.354;2022-09-06T03:57:36;100702.00;;;25.60
16956;BMP180;8594;52.052;8.354;2022-09-06T04:00:04;100701.00;;;25.70
16956;BMP180;8594;52.052;8.354;2022-09-06T04:02:31;100695.00;;;25.30
16956;BMP180;8594;52.052;8.354;2022-09-06T04:04:57;100700.00;;;25.20
16956;BMP180;8594;52.052;8.354;2022-09-06T04:07:24;100690.00;;;25.10
16956;BMP180;8594;52.052;8.354;2022-09-06T04:09:51;100685.00;;;25.20
16956;BMP180;8594;52.052;8.354;2022-09-06T04:12:19;100689.00;;;25.20
16956;BMP180;8594;52.052;8.354;2022-09-06T04:14:46;100678.00;;;25.40
16956;BMP180;8594;52.052;8.354;2022-09-06T04:17:13;100676.00;;;24.90
16956;BMP180;8594;52.052;8.354;2022-09-06T04:19:39;100675.00;;;24.90
16956;BMP180;8594;52.052;8.354;2022-09-06T04:22:06;100672.00;;;24.50
16956;BMP180;8594;52.052;8.354;2022-09-06T04:24:33;100675.00;;;24.80
16956;BMP180;8594;52.052;8.354;2022-09-06T04:27:00;100682.00;;;25.00
16956;BMP180;8594;52.052;8.354;2022-09-06T04:29:28;100686.00;;;25.30
16956;BMP180;8594;52.052;8.354;2022-09-06T04:31:55;100691.00;;;25.00
16956;BMP180;8594;52.052;8.354;2022-09-06T04:34:21;100691.00;;;25.30
16956;BMP180;8594;52.052;8.354;2022-09-06T04:36:48;100697.00;;;25.10
16956;BMP180;8594;52.052;8.354;2022-09-06T04:39:15;100694.00;;;25.20
16956;BMP180;8594;52.052;8.354;2022-09-06T04:41:41;100694.00;;;25.40
16956;BMP180;8594;52.052;8.354;2022-09-06T04:44:08;100689.00;;;25.10
16956;BMP180;8594;52.052;8.354;2022-09-06T04:46:40;100693.00;;;25.10
16956;BMP180;8594;52.052;8.354;2022-09-06T04:49:07;100696.00;;;24.80
16956;BMP180;8594;52.052;8.354;2022-09-06T04:51:33;100704.00;;;25.30
16956;BMP180;8594;52.052;8.354;2022-09-06T04:54:01;100706.00;;;25.10
16956;BMP180;8594;52.052;8.354;2022-09-06T04:56:28;100703.00;;;25.10
16956;BMP180;8594;52.052;8.354;2022-09-06T04:58:55;100701.00;;;24.90
16956;BMP180;8594;52.052;8.354;2022-09-06T05:01:22;100707.00;;;25.20
16956;BMP180;8594;52.052;8.354;2022-09-06T05:03:52;100709.00;;;25.40
16956;BMP180;8594;52.052;8.354;2022-09-06T05:06:21;100705.00;;;25.30
16956;BMP180;8594;52.052;8.354;2022-09-06T05:08:49;100710.00;;;25.30
16956;BMP180;8594;52.052;8.354;2022-09-06T05:11:17;100705.00;;;25.00
16956;BMP180;8594;52.052;8.354;2022-09-06T05:13:45;100709.00;;;25.20
16956;BMP180;8594;52.052;8.354;2022-09-06T05:16:12;100713.00;;;25.00
16956;BMP180;8594;52.052;8.354;2022-09-06T05:18:39;100707.00;;;25.00
16956;BMP180;8594;52.052;8.354;2022-09-06T05:21:07;100706.00;;;25.30
16956;BMP180;8594;52.052;8.354;2022-09-06T05:23:35;100716.00;;;25.10
16956;BMP180;8594;52.052;8.354;2022-09-06T05:26:02;100720.00;;;25.20
16956;BMP180;8594;52.052;8.354;2022-09-06T05:28:28;100721.00;;;24.90
16956;BMP180;8594;52.052;8.354;2022-09-06T05:31:05;100733.00;;;24.90
16956;BMP180;8594;52.052;8.354;2022-09-06T05:33:32;100724.00;;;24.80
16956;BMP180;8594;52.052;8.354;2022-09-06T05:35:59;100726.00;;;25.20
16956;BMP180;8594;52.052;8.354;2022-09-06T05:38:27;100728.00;;;25.40
16956;BMP180;8594;52.052;8.354;2022-09-06T05:40:54;100737.00;;;25.00
16956;BMP180;8594;52.052;8.354;2022-09-06T05:43:21;100742.00;;;25.00
16956;BMP180;8594;52.052;8.354;2022-09-06T05:45:48;100737.00;;;25.40
16956;BMP180;8594;52.052;8.354;2022-09-06T05:48:14;100740.00;;;25.20
16956;BMP180;8594;52.052;8.354;2022-09-06T05:50:41;100751.00;;;25.00
16956;BMP180;8594;52.052;8.354;2022-09-06T05:53:08;100756.00;;;25.10
16956;BMP180;8594;52.052;8.354;2022-09-06T05:55:36;100759.00;;;25.00
16956;BMP180;8594;52.052;8.354;2022-09-06T05:58:03;100765.00;;;25.10
16956;BMP180;8594;52.052;8.354;2022-09-06T06:00:30;100762.00;;;25.20
16956;BMP180;8594;52.052;8.354;2022-09-06T06:02:56;100758.00;;;25.20
16956;BMP180;8594;52.052;8.354;2022-09-06T06:05:23;100760.00;;;25.20
16956;BMP180;8594;52.052;8.354;2022-09-06T06:07:50;100760.00;;;25.40
16956;BMP180;8594;52.052;8.354;2022-09-06T06:10:17;100755.00;;;25.70
16956;BMP180;8594;52.052;8.354;2022-09-06T06:12:45;100754.00;;;25.60
16956;BMP180;8594;52.052;8.354;2022-09-06T06:15:11;100755.00;;;25.30
16956;BMP180;8594;52.052;8.354;2022-09-06T06:17:38;100761.00;;;25.20
16956;BMP180;8594;52.052;8.354;2022-09-06T06:20:07;100758.00;;;25.10
16956;BMP180;8594;52.052;8.354;2022-09-06T06:22:34;100756.00;;;25.20
16956;BMP180;8594;52.052;8.354;2022-09-06T06:25:00;100760.00;;;24.90
16956;BMP180;8594;52.052;8.354;2022-09-06T06:27:27;100759.00;;;25.60
16956;BMP180;8594;52.052;8.354;2022-09-06T06:29:55;100751.00;;;25.50
16956;BMP180;8594;52.052;8.354;2022-09-06T06:32:22;100760.00;;;25.10
16956;BMP180;8594;52.052;8.354;2022-09-06T06:34:49;100768.00;;;25.30
16956;BMP180;8594;52.052;8.354;2022-09-06T06:37:15;100769.00;;;25.40
16956;BMP180;8594;52.052;8.354;2022-09-06T06:39:43;100774.00;;;25.20
16956;BMP180;8594;52.052;8.354;2022-09-06T06:42:10;100782.00;;;24.70
16956;BMP180;8594;52.052;8.354;2022-09-06T06:44:36;100782.00;;;25.10
16956;BMP180;8594;52.052;8.354;2022-09-06T06:47:05;100767.00;;;25.40
16956;BMP180;8594;52.052;8.354;2022-09-06T06:49:31;100766.00;;;25.80
16956;BMP180;8594;52.052;8.354;2022-09-06T06:51:58;100763.00;;;26.10
16956;BMP180;8594;52.052;8.354;2022-09-06T06:54:25;100759.00;;;25.90
16956;BMP180;8594;52.052;8.354;2022-09-06T06:56:52;100743.00;;;25.80
16956;BMP180;8594;52.052;8.354;2022-09-06T06:59:18;100754.00;;;25.90
16956;BMP180;8594;52.052;8.354;2022-09-06T07:01:46;100751.00;;;25.70
16956;BMP180;8594;52.052;8.354;2022-09-06T07:04:15;100766.00;;;25.40
16956;BMP180;8594;52.052;8.354;2022-09-06T07:06:48;100772.00;;;25.50
16956;BMP180;8594;52.052;8.354;2022-09-06T07:09:16;100773.00;;;25.40
16956;BMP180;8594;52.052;8.354;2022-09-06T07:11:43;100769.00;;;25.40
16956;BMP180;8594;52.052;8.354;2022-09-06T07:14:10;100773.00;;;25.40
16956;BMP180;8594;52.052;8.354;2022-09-06T07:16:37;100771.00;;;25.50
16956;BMP180;8594;52.052;8.354;2022-09-06T07:19:04;100767.00;;;25.70
16956;BMP180;8594;52.052;8.354;2022-09-06T07:21:32;100759.00;;;25.90
16956;BMP180;8594;52.052;8.354;2022-09-06T07:23:59;100750.00;;;25.70
16956;BMP180;8594;52.052;8.354;2022-09-06T07:26:28;100755.00;;;25.40
16956;BMP180;8594;52.052;8.354;2022-09-06T07:28:58;100754.00;;;25.40
16956;BMP180;8594;52.052;8.354;2022-09-06T07:31:26;100756.00;;;25.30
16956;BMP180;8594;52.052;8.354;2022-09-06T07:33:53;100748.00;;;25.20
16956;BMP180;8594;52.052;8.354;2022-09-06T07:36:20;100751.00;;;25.30
16956;BMP180;8594;52.052;8.354;2022-09-06T07:38:49;100749.00;;;25.20
16956;BMP180;8594;52.052;8.354;2022-09-06T07:41:18;100742.00;;;25.80
16956;BMP180;8594;52.052;8.354;2022-09-06T07:43:44;100728.00;;;25.70
16956;BMP180;8594;52.052;8.354;2022-09-06T07:46:14;100717.00;;;25.60
16956;BMP180;8594;52.052;8.354;2022-09-06T07:48:43;100725.00;;;25.40
16956;BMP180;8594;52.052;8.354;2022-09-06T07:51:13;100724.00;;;25.50
16956;BMP180;8594;52.052;8.354;2022-09-06T07:53:43;100716.00;;;25.20
16956;BMP180;8594;52.052;8.354;2022-09-06T07:56:12;100712.00;;;25.50
16956;BMP180;8594;52.052;8.354;2022-09-06T07:58:40;100716.00;;;25.50
16956;BMP180;8594;52.052;8.354;2022-09-06T08:01:18;100710.00;;;25.30
16956;BMP180;8594;52.052;8.354;2022-09-06T08:03:50;100706.00;;;25.20
16956;BMP180;8594;52.052;8.354;2022-09-06T08:06:17;100703.00;;;25.60
16956;BMP180;8594;52.052;8.354;2022-09-06T08:08:44;100707.00;;;25.50
16956;BMP180;8594;52.052;8.354;2022-09-06T08:11:12;100679.00;;;25.10
16956;BMP180;8594;52.052;8.354;2022-09-06T08:13:38;100677.00;;;25.10
16956;BMP180;8594;52.052;8.354;2022-09-06T08:16:09;100678.00;;;24.80
16956;BMP180;8594;52.052;8.354;2022-09-06T08:18:37;100684.00;;;25.20
16956;BMP180;8594;52.052;8.354;2022-09-06T08:21:12;100683.00;;;25.80
16956;BMP180;8594;52.052;8.354;2022-09-06T08:23:40;100694.00;;;25.90
16956;BMP180;8594;52.052;8.354;2022-09-06T08:26:11;100691.00;;;26.00
16956;BMP180;8594;52.052;8.354;2022-09-06T08:28:38;100701.00;;;26.40
16956;BMP180;8594;52.052;8.354;2022-09-06T08:31:08;100704.00;;;26.40
16956;BMP180;8594;52.052;8.354;2022-09-06T08:33:36;100701.00;;;26.80
16956;BMP180;8594;52.052;8.354;2022-09-06T08:36:05;100704.00;;;26.10
16956;BMP180;8594;52.052;8.354;2022-09-06T08:38:32;100705.00;;;26.40
16956;BMP180;8594;52.052;8.354;2022-09-06T08:41:09;100711.00;;;26.20
16956;BMP180;8594;52.052;8.354;2022-09-06T08:43:38;100715.00;;;27.30
16956;BMP180;8594;52.052;8.354;2022-09-06T08:46:15;100721.00;;;27.90
16956;BMP180;8594;52.052;8.354;2022-09-06T08:48:43;100726.00;;;27.60
16956;BMP180;8594;52.052;8.354;2022-09-06T08:51:38;100733.00;;;27.60
16956;BMP180;8594;52.052;8.354;2022-09-06T08:54:17;100733.00;;;27.90
16956;BMP180;8594;52.052;8.354;2022-09-06T08:57:02;100722.00;;;28.40
16956;BMP180;8594;52.052;8.354;2022-09-06T08:59:37;100721.00;;;29.10
16956;BMP180;8594;52.052;8.354;2022-09-06T09:02:11;100718.00;;;29.00
16956;BMP180;8594;52.052;8.354;2022-09-06T09:04:43;100724.00;;;29.30
16956;BMP180;8594;52.052;8.354;2022-09-06T09:07:32;100725.00;;;30.10
16956;BMP180;8594;52.052;8.354;2022-09-06T09:10:06;100722.00;;;30.10
16956;BMP180;8594;52.052;8.354;2022-09-06T09:12:44;100723.00;;;30.10
16956;BMP180;8594;52.052;8.354;2022-09-06T09:15:17;100717.00;;;30.30
16956;BMP180;8594;52.052;8.354;2022-09-06T09:17:47;100717.00;;;31.10
16956;BMP180;8594;52.052;8.354;2022-09-06T09:20:15;100718.00;;;31.40
16956;BMP180;8594;52.052;8.354;2022-09-06T09:22:43;100717.00;;;31.00
16956;BMP180;8594;52.052;8.354;2022-09-06T09:25:19;100708.00;;;31.30
16956;BMP180;8594;52.052;8.354;2022-09-06T09:27:48;100710.00;;;31.30
16956;BMP180;8594;52.052;8.354;2022-09-06T09:30:24;100711.00;;;30.90
16956;BMP180;8594;52.052;8.354;2022-09-06T09:32:51;100700.00;;;31.20
16956;BMP180;8594;52.052;8.354;2022-09-06T09:35:26;100695.00;;;31.50
16956;BMP180;8594;52.052;8.354;2022-09-06T09:38:01;100696.00;;;31.50
16956;BMP180;8594;52.052;8.354;2022-09-06T09:40:33;100695.00;;;30.90
16956;BMP180;8594;52.052;8.354;2022-09-06T09:43:13;100697.00;;;31.40
16956;BMP180;8594;52.052;8.354;2022-09-06T09:45:43;100697.00;;;31.90
16956;BMP180;8594;52.052;8.354;2022-09-06T09:48:22;100691.00;;;32.40
16956;BMP180;8594;52.052;8.354;2022-09-06T09:50:52;100690.00;;;31.90
16956;BMP180;8594;52.052;8.354;2022-09-06T09:53:22;100687.00;;;32.40
16956;BMP180;8594;52.052;8.354;2022-09-06T09:55:56;100685.00;;;32.90
16956;BMP180;8594;52.052;8.354;2022-09-06T09:58:33;100686.00;;;32.80
16956;BMP180;8594;52.052;8.354;2022-09-06T10:01:18;100694.00;;;32.50
16956;BMP180;8594;52.052;8.354;2022-09-06T10:03:47;100689.00;;;32.40
16956;BMP180;8594;52.052;8.354;2022-09-06T10:06:14;100691.00;;;32.90
16956;BMP180;8594;52.052;8.354;2022-09-06T10:08:42;100691.00;;;31.70
16956;BMP180;8594;52.052;8.354;2022-09-06T10:11:13;100692.00;;;32.30
16956;BMP180;8594;52.052;8.354;2022-09-06T10:13:40;100686.00;;;32.50
16956;BMP180;8594;52.052;8.354;2022-09-06T10:16:08;100687.00;;;32.90
16956;BMP180;8594;52.052;8.354;2022-09-06T10:18:39;100682.00;;;32.30
16956;BMP180;8594;52.052;8.354;2022-09-06T10:21:09;100686.00;;;32.80
16956;BMP180;8594;52.052;8.354;2022-09-06T10:24:04;100686.00;;;32.30
16956;BMP180;8594;52.052;8.354;2022-09-06T10:26:45;100678.00;;;32.50
16956;BMP180;8594;52.052;8.354;2022-09-06T10:29:25;100684.00;;;32.30
16956;BMP180;8594;52.052;8.354;2022-09-06T10:32:24;100682.00;;;32.10
16956;BMP180;8594;52.052;8.354;2022-09-06T10:35:07;100678.00;;;32.50
16956;BMP180;8594;52.052;8.354;2022-09-06T10:37:51;100670.00;;;32.20
16956;BMP180;8594;52.052;8.354;2022-09-06T10:40:31;100672.00;;;32.70
16956;BMP180;8594;52.052;8.354;2022-09-06T10:42:59;100672.00;;;32.70
16956;BMP180;8594;52.052;8.354;2022-09-06T10:45:44;100668.00;;;32.40
16956;BMP180;8594;52.052;8.354;2022-09-06T10:48:17;100662.00;;;32.10
16956;BMP180;8594;52.052;8.354;2022-09-06T10:50:54;100659.00;;;32.00
16956;BMP180;8594;52.052;8.354;2022-09-06T10:53:42;100649.00;;;32.10
16956;BMP180;8594;52.052;8.354;2022-09-06T10:56:17;100651.00;;;32.30
16956;BMP180;8594;52.052;8.354;2022-09-06T10:58:53;100657.00;;;32.10
16956;BMP180;8594;52.052;8.354;2022-09-06T11:01:30;100659.00;;;32.00
16956;BMP180;8594;52.052;8.354;2022-09-06T11:03:59;100660.00;;;32.10
16956;BMP180;8594;52.052;8.354;2022-09-06T11:06:33;100655.00;;;32.10
16956;BMP180;8594;52.052;8.354;2022-09-06T11:09:10;100655.00;;;31.90
16956;BMP180;8594;52.052;8.354;2022-09-06T11:11:47;100655.00;;;32.00
16956;BMP180;8594;52.052;8.354;2022-09-06T11:14:17;100648.00;;;31.90
16956;BMP180;8594;52.052;8.354;2022-09-06T11:16:52;100659.00;;;31.90
16956;BMP180;8594;52.052;8.354;2022-09-06T11:19:28;100653.00;;;31.80
16956;BMP180;8594;52.052;8.354;2022-09-06T11:22:38;100656.00;;;32.10
16956;BMP180;8594;52.052;8.354;2022-09-06T11:25:48;100658.00;;;32.40
16956;BMP180;8594;52.052;8.354;2022-09-06T11:28:27;100658.00;;;33.20
16956;BMP180;8594;52.052;8.354;2022-09-06T11:30:56;100658.00;;;33.20
16956;BMP180;8594;52.052;8.354;2022-09-06T11:33:27;100655.00;;;33.40
16956;BMP180;8594;52.052;8.354;2022-09-06T11:36:23;100657.00;;;33.00
16956;BMP180;8594;52.052;8.354;2022-09-06T11:38:58;100657.00;;;33.00
16956;BMP180;8594;52.052;8.354;2022-09-06T11:41:30;100653.00;;;32.90
16956;BMP180;8594;52.052;8.354;2022-09-06T11:43:58;100657.00;;;33.50
16956;BMP180;8594;52.052;8.354;2022-09-06T11:46:57;100656.00;;;33.80
16956;BMP180;8594;52.052;8.354;2022-09-06T11:49:37;100659.00;;;33.90
16956;BMP180;8594;52.052;8.354;2022-09-06T11:52:59;100654.00;;;33.90
16956;BMP180;8594;52.052;8.354;2022-09-06T11:55:42;100652.00;;;33.30
16956;BMP180;8594;52.052;8.354;2022-09-06T11:58:22;100650.00;;;33.30
16956;BMP180;8594;52.052;8.354;2022-09-06T12:01:33;100649.00;;;32.50
16956;BMP180;8594;52.052;8.354;2022-09-06T12:04:04;100640.00;;;33.30
16956;BMP180;8594;52.052;8.354;2022-09-06T12:06:33;100633.00;;;33.20
16956;BMP180;8594;52.052;8.354;2022-09-06T12:09:26;100639.00;;;33.10
16956;BMP180;8594;52.052;8.354;2022-09-06T12:11:54;100635.00;;;32.90
16956;BMP180;8594;52.052;8.354;2022-09-06T12:14:36;100638.00;;;32.60
16956;BMP180;8594;52.052;8.354;2022-09-06T12:17:26;100635.00;;;32.90
16956;BMP180;8594;52.052;8.354;2022-09-06T12:19:57;100633.00;;;33.40
16956;BMP180;8594;52.052;8.354;2022-09-06T12:23:01;100624.00;;;32.90
16956;BMP180;8594;52.052;8.354;2022-09-06T12:25:55;100623.00;;;33.00
16956;BMP180;8594;52.052;8.354;2022-09-06T12:28:39;100629.00;;;32.70
16956;BMP180;8594;52.052;8.354;2022-09-06T12:31:38;100632.00;;;32.70
16956;BMP180;8594;52.052;8.354;2022-09-06T12:34:11;100627.00;;;33.10
16956;BMP180;8594;52.052;8.354;2022-09-06T12:36:54;100627.00;;;32.50
16956;BMP180;8594;52.052;8.354;2022-09-06T12:39:22;100614.00;;;33.30
16956;BMP180;8594;52.052;8.354;2022-09-06T12:41:54;100619.00;;;33.20
16956;BMP180;8594;52.052;8.354;2022-09-06T12:44:30;100615.00;;;33.30
16956;BMP180;8594;52.052;8.354;2022-09-06T12:47:04;100613.00;;;32.50
16956;BMP180;8594;52.052;8.354;2022-09-06T12:49:32;100610.00;;;32.80
16956;BMP180;8594;52.052;8.354;2022-09-06T12:52:12;100606.00;;;33.30
16956;BMP180;8594;52.052;8.354;2022-09-06T12:54:46;100605.00;;;33.90
16956;BMP180;8594;52.052;8.354;2022-09-06T12:57:18;100594.00;;;33.40
16956;BMP180;8594;52.052;8.354;2022-09-06T12:59:53;100596.00;;;33.40
16956;BMP180;8594;52.052;8.354;2022-09-06T13:02:31;100591.00;;;33.40
16956;BMP180;8594;52.052;8.354;2022-09-06T13:05:03;100595.00;;;33.60
16956;BMP180;8594;52.052;8.354;2022-09-06T13:07:32;100592.00;;;33.10
16956;BMP180;8594;52.052;8.354;2022-09-06T13:10:02;100594.00;;;33.00
16956;BMP180;8594;52.052;8.354;2022-09-06T13:12:33;100576.00;;;33.50
16956;BMP180;8594;52.052;8.354;2022-09-06T13:15:06;100575.00;;;33.80
16956;BMP180;8594;52.052;8.354;2022-09-06T13:17:33;100578.00;;;33.60
16956;BMP180;8594;52.052;8.354;2022-09-06T13:20:11;100587.00;;;34.00
16956;BMP180;8594;52.052;8.354;2022-09-06T13:22:43;100561.00;;;33.90
16956;BMP180;8594;52.052;8.354;2022-09-06T13:25:24;100567.00;;;33.20
16956;BMP180;8594;52.052;8.354;2022-09-06T13:27:54;100563.00;;;33.00
16956;BMP180;8594;52.052;8.354;2022-09-06T13:30:36;100573.00;;;33.30
16956;BMP180;8594;52.052;8.354;2022-09-06T13:33:05;100564.00;;;32.60
16956;BMP180;8594;52.052;8.354;2022-09-06T13:35:36;100563.00;;;33.00
16956;BMP180;8594;52.052;8.354;2022-09-06T13:38:30;100565.00;;;33.20
16956;BMP180;8594;52.052;8.354;2022-09-06T13:40:58;100566.00;;;33.20
16956;BMP180;8594;52.052;8.354;2022-09-06T13:43:28;100570.00;;;33.60
16956;BMP180;8594;52.052;8.354;2022-09-06T13:46:05;100571.00;;;33.10
16956;BMP180;8594;52.052;8.354;2022-09-06T13:48:33;100568.00;;;33.00
16956;BMP180;8594;52.052;8.354;2022-09-06T13:51:04;100563.00;;;33.30
16956;BMP180;8594;52.052;8.354;2022-09-06T13:53:31;100563.00;;;33.10
16956;BMP180;8594;52.052;8.354;2022-09-06T13:55:58;100563.00;;;33.20
16956;BMP180;8594;52.052;8.354;2022-09-06T13:58:27;100549.00;;;33.30
16956;BMP180;8594;52.052;8.354;2022-09-06T14:00:54;100551.00;;;33.50
16956;BMP180;8594;52.052;8.354;2022-09-06T14:03:25;100549.00;;;33.60
16956;BMP180;8594;52.052;8.354;2022-09-06T14:05:53;100552.00;;;33.60
16956;BMP180;8594;52.052;8.354;2022-09-06T14:08:20;100563.00;;;33.60
16956;BMP180;8594;52.052;8.354;2022-09-06T14:10:47;100558.00;;;33.80
16956;BMP180;8594;52.052;8.354;2022-09-06T14:13:16;100554.00;;;33.20
16956;BMP180;8594;52.052;8.354;2022-09-06T14:15:46;100556.00;;;33.70
16956;BMP180;8594;52.052;8.354;2022-09-06T14:18:14;100550.00;;;33.80
16956;BMP180;8594;52.052;8.354;2022-09-06T14:20:41;100554.00;;;34.00
16956;BMP180;8594;52.052;8.354;2022-09-06T14:23:08;100550.00;;;33.90
16956;BMP180;8594;52.052;8.354;2022-09-06T14:25:36;100558.00;;;33.90
16956;BMP180;8594;52.052;8.354;2022-09-06T14:28:03;100558.00;;;33.60
16956;BMP180;8594;52.052;8.354;2022-09-06T14:30:31;100558.00;;;33.60
16956;BMP180;8594;52.052;8.354;2022-09-06T14:32:59;100547.00;;;33.80
16956;BMP180;8594;52.052;8.354;2022-09-06T14:35:25;100554.00;;;33.60
16956;BMP180;8594;52.052;8.354;2022-09-06T14:37:53;100555.00;;;33.70